• Join FlightAware (Why Join?)
  • Login
  • US Flag 
02:57PM EDT


 

Airport Tracker/Info


-or-


 

Live Flight TrackerFlight Track Log ✈ FLG4115 ✈ 24-Apr-2013 ✈ KDTW - KIAD

Flight Track Log - Related Links

Times and Time Zones

All times are in EDT time to prevent confusion due to time zone crossing. See the FLG4115 flight status page for this flight to view local times or setup timezone preferences in your user account.

Time Position Orientation Groundspeed Altitude Reporting Facility
EDT Latitude Longitude Course Direction KTS MPH feet Rate Location/Type
07:43AM 42.2272 -83.3369 102° East 148 170 1,500  Level Cleveland Center
07:44AM 42.2658 -83.2881 43° Northeast 229 264 4,300 2,160 Climbing Cleveland Center
07:45AM 42.1450 -82.8813 101° East  Level FlightAware Approximate
07:45AM 42.3156 -83.2144 48° Northeast 302 348 5,900  Level Cleveland Center
07:46AM 42.1143 -82.7262 98° East  Level FlightAware Approximate
07:46AM 42.3011 -83.1128 101° East 291 335 8,700  Level Cleveland Center
07:47AM 42.0947 -82.5675 114° Southeast  Level FlightAware Approximate
07:47AM 42.2617 -83.0017 116° Southeast 334 384 10,300  Level Cleveland Center
07:48AM 42.0745 -82.4105 102° East  Level FlightAware Approximate
07:48AM 42.2206 -82.8794 114° Southeast 373 429 11,700  Level Cleveland Center
07:49AM 42.1792 -82.7547 114° Southeast 373 429 13,200 1,500 Climbing Cleveland Center
07:50AM 42.1336 -82.6272 116° Southeast 373 429 14,800 1,500 Climbing Cleveland Center
07:51AM 42.0900 -82.4969 114° Southeast 373 429 16,300 1,440 Climbing Cleveland Center
07:52AM 42.0672 -82.3508 102° East 380 437 17,700 1,740 Climbing Cleveland Center
07:53AM 42.0464 -82.2022 101° East 391 450 19,800 1,800 Climbing Cleveland Center
07:54AM 42.0108 -82.0614 109° East 403 464 21,300 1,260 Climbing Cleveland Center
07:55AM 41.9264 -81.9758 143° Southeast 374 430 22,400 1,260 Climbing Cleveland Center
07:56AM 41.8378 -81.8875 143° Southeast 389 448 23,900 1,380 Climbing Cleveland Center
07:57AM 41.7469 -81.8050 146° Southeast 394 453 25,200 1,200 Climbing Cleveland Center
07:58AM 41.6500 -81.7142 145° Southeast 394 453 26,400 1,020 Climbing Cleveland Center
07:59AM 41.5611 -81.6267 144° Southeast 394 453 27,300 780 Climbing Cleveland Center
08:00AM 41.4661 -81.5392 145° Southeast 404 465 28,000 600 Climbing Cleveland Center
08:01AM 41.3708 -81.4464 144° Southeast 415 478 28,500 480 Climbing Cleveland Center
08:02AM 41.2717 -81.3539 145° Southeast 428 493 29,000 240 Climbing Cleveland Center
08:03AM 41.1803 -81.2700 145° Southeast 439 505 29,000  Level Cleveland Center
08:04AM 41.0725 -81.1892 151° Southeast 439 505 29,000  Level Cleveland Center
08:05AM 40.9581 -81.1494 165° South 433 498 29,000  Level Cleveland Center
08:06AM 40.8478 -81.0772 154° Southeast 433 498 29,000  Level Cleveland Center
08:07AM 40.7378 -80.9667 143° Southeast 444 511 29,000  Level Cleveland Center
08:08AM 40.6358 -80.8703 144° Southeast 449 517 29,000  Level Cleveland Center
08:09AM 40.5319 -80.7717 144° Southeast 454 522 29,000  Level Cleveland Center
08:10AM 40.4297 -80.6867 148° Southeast 449 517 29,000  Level Cleveland Center
08:11AM 40.3172 -80.6375 162° South 425 489 29,000  Level Cleveland Center
08:12AM 40.2047 -80.5831 160° South 430 495 29,000  Level Cleveland Center
08:13AM 40.0900 -80.5342 162° South 435 501 29,000  Level Cleveland Center
08:14AM 39.9775 -80.4856 162° South 435 501 29,000  Level Cleveland Center
08:15AM 39.8608 -80.4344 161° South 435 501 29,000  Level Cleveland Center
08:16AM 39.7419 -80.3833 162° South 448 516 29,000  Level Cleveland Center
08:17AM 39.6292 -80.3269 159° South 448 516 29,000  Level Cleveland Center
08:17AM 39.6108 -80.3083 142° Southeast 431 496 29,000  Level Washington Center
08:18AM 39.5692 -80.1494 109° East 406 467 29,000  Level Washington Center
08:19AM 39.5508 -79.9706 98° East 427 491 29,000  Level Washington Center
08:20AM 39.5300 -79.7972 99° East 463 533 29,000 -780 Level Washington Center
08:22AM 39.4872 -79.4531 99° East 482 555 26,700 -1,320 Descending Washington Center
08:23AM 39.4589 -79.2903 103° East 475 547 25,200 -1,440 Descending Washington Center
08:24AM 39.4225 -79.1139 105° East 465 535 23,900 -1,740 Descending Washington Center
08:25AM 39.3978 -78.9647 102° East 449 517 21,800 -2,460 Descending Washington Center
08:26AM 39.3703 -78.8214 104° East 423 487 19,000 -2,640 Descending Washington Center
08:27AM 39.3467 -78.6861 103° East 410 472 16,600 -2,460 Descending Washington Center
08:28AM 39.3231 -78.5508 103° East 395 455 14,100 -2,220 Descending Washington Center
08:29AM 39.2953 -78.4131 105° East 390 449 12,200 -1,500 Descending Washington Center
08:30AM 39.2581 -78.2989 113° Southeast 369 425 11,200 -600 Descending Washington Center
08:31AM 39.2608 -78.1836 88° East 332 382 11,000 -240 Descending Washington Center
08:32AM 39.2672 -78.0686 86° East 318 366 10,800 -840 Descending Washington Center
08:33AM 39.2739 -77.9536 86° East 318 366 9,400 -1,500 Descending Washington Center
08:34AM 39.2822 -77.8386 85° East 318 366 7,800 -1,560 Descending Washington Center
08:35AM 39.2903 -77.7369 84° East 306 352 6,300 -1,500 Descending Washington Center
08:36AM 39.2753 -77.6400 101° East 283 326 4,900 -1,200 Descending Washington Center
08:37AM 39.2539 -77.5428 106° East 278 320 3,900 -900 Descending Washington Center
08:38AM 39.2178 -77.4589 119° Southeast 278 320 3,100 -480 Descending Washington Center
08:39AM 39.1667 -77.4500 172° South 177 204 3,000 -120 Descending Potomac TRACON